createdAt,value
2018-03-24T00:02:02.200Z,14.63
2018-03-24T00:04:27.978Z,14.80
2018-03-24T00:06:53.707Z,16.23
2018-03-24T00:09:19.466Z,16.80
2018-03-24T00:11:45.189Z,15.57
2018-03-24T00:14:10.902Z,15.23
2018-03-24T00:16:36.627Z,14.63
2018-03-24T00:19:02.374Z,15.93
2018-03-24T00:21:28.094Z,14.93
2018-03-24T00:23:53.819Z,15.43
2018-03-24T00:26:19.521Z,15.97
2018-03-24T00:28:45.237Z,15.43
2018-03-24T00:31:11.006Z,15.03
2018-03-24T00:33:36.736Z,15.50
2018-03-24T00:36:02.450Z,15.00
2018-03-24T00:38:28.173Z,15.30
2018-03-24T00:40:54.325Z,15.10
2018-03-24T00:43:20.062Z,14.52
2018-03-24T00:45:45.802Z,15.00
2018-03-24T00:48:11.533Z,13.80
2018-03-24T00:50:37.270Z,14.10
2018-03-24T00:53:02.989Z,13.73
2018-03-24T00:55:28.709Z,14.70
2018-03-24T00:57:54.445Z,14.80
2018-03-24T01:00:20.181Z,13.07
2018-03-24T01:02:45.894Z,15.40
2018-03-24T01:05:11.626Z,13.10
2018-03-24T01:07:37.342Z,13.87
2018-03-24T01:10:03.072Z,13.83
2018-03-24T01:12:28.849Z,14.23
2018-03-24T01:14:54.541Z,13.60
2018-03-24T01:17:20.253Z,13.07
2018-03-24T01:19:45.979Z,13.07
2018-03-24T01:22:11.709Z,13.60
2018-03-24T01:24:37.446Z,12.73
2018-03-24T01:27:03.222Z,13.90
2018-03-24T01:29:28.957Z,12.90
2018-03-24T01:31:54.700Z,14.10
2018-03-24T01:34:20.426Z,14.10
2018-03-24T01:36:46.162Z,13.77
2018-03-24T01:39:11.877Z,12.93
2018-03-24T01:41:37.625Z,12.83
2018-03-24T01:44:03.366Z,12.13
2018-03-24T01:46:29.097Z,13.27
2018-03-24T01:48:54.838Z,12.53
2018-03-24T01:51:20.575Z,13.60
2018-03-24T01:53:53.323Z,12.17
2018-03-24T01:56:19.049Z,13.05
2018-03-24T01:58:44.774Z,12.77
2018-03-24T02:01:10.505Z,12.77
2018-03-24T02:03:36.230Z,12.57
2018-03-24T02:06:01.958Z,13.60
2018-03-24T02:08:27.738Z,12.63
2018-03-24T02:10:53.489Z,13.23
2018-03-24T02:13:19.246Z,12.83
2018-03-24T02:15:44.974Z,12.57
2018-03-24T02:18:10.699Z,12.60
2018-03-24T02:20:36.421Z,12.40
2018-03-24T02:23:02.154Z,12.60
2018-03-24T02:25:27.890Z,12.97
2018-03-24T02:27:53.637Z,11.97
2018-03-24T02:30:19.675Z,12.40
2018-03-24T02:32:45.410Z,12.73
2018-03-24T02:35:11.131Z,12.30
2018-03-24T02:37:36.863Z,12.57
2018-03-24T02:40:02.599Z,11.73
2018-03-24T02:42:28.321Z,11.93
2018-03-24T02:44:54.086Z,11.53
2018-03-24T02:47:19.777Z,10.53
2018-03-24T02:49:45.499Z,12.13
2018-03-24T02:52:11.229Z,11.07
2018-03-24T02:54:36.969Z,13.33
2018-03-24T02:57:02.690Z,12.83
2018-03-24T02:59:28.418Z,11.30
2018-03-24T03:01:54.144Z,11.77
2018-03-24T03:04:19.861Z,11.60
2018-03-24T03:06:45.570Z,12.23
2018-03-24T03:09:11.310Z,10.73
2018-03-24T03:11:37.020Z,11.50
2018-03-24T03:14:02.750Z,11.77
2018-03-24T03:16:28.470Z,10.60
2018-03-24T03:18:54.190Z,11.63
2018-03-24T03:21:19.902Z,11.03
2018-03-24T03:23:45.649Z,11.77
2018-03-24T03:26:11.374Z,11.40
2018-03-24T03:28:37.101Z,12.67
2018-03-24T03:33:56.542Z,13.00
2018-03-24T03:36:22.250Z,11.00
2018-03-24T03:38:47.974Z,11.00
2018-03-24T03:41:13.699Z,11.60
2018-03-24T03:43:39.417Z,11.20
2018-03-24T03:46:05.131Z,12.27
2018-03-24T03:48:30.865Z,12.27
2018-03-24T03:50:56.582Z,12.00
2018-03-24T03:53:22.297Z,11.20
2018-03-24T03:55:48.018Z,11.40
2018-03-24T03:58:13.755Z,11.23
2018-03-24T04:00:46.626Z,11.90
2018-03-24T04:03:12.350Z,12.60
2018-03-24T04:05:38.086Z,11.17
2018-03-24T04:08:03.796Z,11.37
2018-03-24T04:10:29.522Z,11.60
2018-03-24T04:12:55.242Z,11.33
2018-03-24T04:15:20.994Z,11.77
2018-03-24T04:17:46.701Z,12.10
2018-03-24T04:20:12.435Z,12.07
2018-03-24T04:22:38.148Z,11.70
2018-03-24T04:25:03.882Z,11.63
2018-03-24T04:27:29.610Z,11.17
2018-03-24T04:29:55.346Z,11.50
2018-03-24T04:32:21.066Z,11.47
2018-03-24T04:34:46.802Z,11.83
2018-03-24T04:37:12.530Z,11.53
2018-03-24T04:39:38.258Z,12.20
2018-03-24T04:42:03.987Z,12.27
2018-03-24T04:44:29.713Z,11.57
2018-03-24T04:46:55.450Z,11.60
2018-03-24T04:49:21.173Z,11.43
2018-03-24T04:51:46.930Z,12.30
2018-03-24T04:54:12.663Z,12.37
2018-03-24T04:56:38.401Z,11.47
2018-03-24T04:59:04.134Z,12.43
2018-03-24T05:01:29.859Z,12.97
2018-03-24T05:03:55.586Z,12.30
2018-03-24T05:06:21.337Z,12.07
2018-03-24T05:08:47.062Z,12.00
2018-03-24T05:11:12.802Z,13.33
2018-03-24T05:13:38.517Z,12.20
2018-03-24T05:16:04.259Z,12.40
2018-03-24T05:18:29.999Z,11.73
2018-03-24T05:20:55.742Z,12.03
2018-03-24T05:23:21.462Z,13.00
2018-03-24T05:25:47.202Z,13.93
2018-03-24T05:28:12.942Z,12.13
2018-03-24T05:30:38.658Z,12.67
2018-03-24T05:33:04.393Z,11.97
2018-03-24T05:35:30.120Z,13.10
2018-03-24T05:37:55.863Z,14.33
2018-03-24T05:40:21.586Z,12.43
2018-03-24T05:42:47.321Z,13.03
2018-03-24T05:45:13.046Z,12.27
2018-03-24T05:47:38.781Z,12.33
2018-03-24T05:50:04.509Z,12.90
2018-03-24T05:52:30.246Z,13.47
2018-03-24T05:54:55.977Z,13.50
2018-03-24T05:57:21.706Z,15.30
2018-03-24T05:59:47.429Z,14.37
2018-03-24T06:02:13.165Z,14.33
2018-03-24T06:04:38.878Z,13.43
2018-03-24T06:07:04.618Z,14.60
2018-03-24T06:09:30.349Z,13.07
2018-03-24T06:11:56.084Z,13.07
2018-03-24T06:14:21.813Z,14.53
2018-03-24T06:16:47.561Z,12.97
2018-03-24T06:19:13.286Z,13.27
2018-03-24T06:21:39.009Z,15.13
2018-03-24T06:24:04.763Z,15.60
2018-03-24T06:26:30.482Z,12.90
2018-03-24T06:28:56.231Z,13.80
2018-03-24T06:31:22.816Z,13.50
2018-03-24T06:33:48.562Z,13.60
2018-03-24T06:36:14.296Z,13.80
2018-03-24T06:38:40.042Z,15.27
2018-03-24T06:41:05.774Z,14.37
2018-03-24T06:43:31.506Z,15.33
2018-03-24T06:45:57.246Z,14.43
2018-03-24T06:48:22.994Z,14.17
2018-03-24T06:50:48.722Z,15.03
2018-03-24T06:53:14.457Z,14.27
2018-03-24T06:55:40.186Z,14.57
2018-03-24T06:58:05.926Z,14.70
2018-03-24T07:00:31.667Z,14.33
2018-03-24T07:02:57.398Z,15.07
2018-03-24T07:05:23.142Z,14.67
2018-03-24T07:07:48.910Z,14.83
2018-03-24T07:10:14.622Z,16.37
2018-03-24T07:12:40.353Z,14.83
2018-03-24T07:15:06.116Z,14.40
2018-03-24T07:17:31.845Z,13.83
2018-03-24T07:19:57.587Z,17.30
2018-03-24T07:22:23.319Z,15.87
2018-03-24T07:24:49.061Z,15.87
2018-03-24T07:27:14.783Z,14.23
2018-03-24T07:29:40.508Z,14.67
2018-03-24T07:32:06.223Z,14.90
2018-03-24T07:34:31.950Z,13.53
2018-03-24T07:36:57.683Z,15.63
2018-03-24T07:39:23.427Z,16.63
2018-03-24T07:41:49.179Z,15.60
2018-03-24T07:44:14.910Z,15.53
2018-03-24T07:46:40.630Z,15.53
2018-03-24T07:49:06.383Z,17.07
2018-03-24T07:51:32.126Z,17.13
2018-03-24T07:53:57.863Z,16.70
2018-03-24T07:56:23.598Z,16.77
2018-03-24T07:58:49.315Z,17.80
2018-03-24T08:01:15.058Z,16.63
2018-03-24T08:03:40.775Z,18.37
2018-03-24T08:06:06.518Z,17.03
2018-03-24T08:08:32.246Z,16.10
2018-03-24T08:10:57.977Z,15.20
2018-03-24T08:13:23.703Z,15.83
2018-03-24T08:15:49.437Z,16.47
2018-03-24T08:18:15.162Z,16.10
2018-03-24T08:20:40.901Z,15.67
2018-03-24T08:23:06.642Z,16.43
2018-03-24T08:25:32.377Z,17.10
2018-03-24T08:27:58.111Z,17.03
2018-03-24T08:30:23.894Z,16.73
2018-03-24T08:32:49.599Z,18.93
2018-03-24T08:35:15.338Z,21.20
2018-03-24T08:37:41.063Z,18.87
2018-03-24T08:40:06.802Z,17.93
2018-03-24T08:42:32.530Z,18.77
2018-03-24T08:44:58.269Z,18.70
2018-03-24T08:47:24.004Z,18.17
2018-03-24T08:49:49.742Z,19.13
2018-03-24T08:52:15.458Z,19.77
2018-03-24T08:54:41.202Z,19.27
2018-03-24T08:57:06.927Z,20.23
2018-03-24T08:59:32.641Z,18.03
2018-03-24T09:01:58.374Z,19.93
2018-03-24T09:04:24.103Z,20.40
2018-03-24T09:06:49.847Z,20.07
2018-03-24T09:09:15.567Z,18.67
2018-03-24T09:11:41.293Z,18.53
2018-03-24T09:14:07.018Z,20.60
2018-03-24T09:16:32.752Z,19.80
2018-03-24T09:18:58.502Z,20.10
2018-03-24T09:21:24.227Z,19.43
2018-03-24T09:23:49.964Z,18.77
2018-03-24T09:26:15.691Z,21.33
2018-03-24T09:28:41.410Z,19.43
2018-03-24T09:31:07.186Z,19.27
2018-03-24T09:33:32.922Z,19.50
2018-03-24T09:35:58.658Z,20.57
2018-03-24T09:38:24.385Z,20.77
2018-03-24T09:40:50.119Z,20.43
2018-03-24T09:43:15.842Z,19.93
2018-03-24T09:45:41.589Z,22.13
2018-03-24T09:48:07.325Z,19.53
2018-03-24T09:50:33.035Z,19.80
2018-03-24T09:52:58.774Z,21.07
2018-03-24T09:55:24.502Z,20.03
2018-03-24T09:57:50.244Z,21.23
2018-03-24T10:00:15.966Z,19.97
2018-03-24T10:02:41.706Z,21.03
2018-03-24T10:05:07.435Z,22.23
2018-03-24T10:07:33.178Z,21.30
2018-03-24T10:09:58.907Z,23.83
2018-03-24T10:12:24.634Z,22.67
2018-03-24T10:14:50.361Z,23.23
2018-03-24T10:17:16.087Z,23.10
2018-03-24T10:19:41.818Z,24.30
2018-03-24T10:25:13.007Z,20.77
2018-03-24T10:27:38.730Z,22.00
2018-03-24T10:30:04.468Z,23.57
2018-03-24T10:32:33.001Z,24.17
2018-03-24T10:35:04.786Z,27.33
2018-03-24T10:37:30.538Z,23.40
2018-03-24T10:39:56.262Z,24.50
2018-03-24T10:42:22.064Z,23.77
2018-03-24T10:44:47.866Z,25.27
2018-03-24T10:47:13.634Z,24.43
2018-03-24T10:49:39.364Z,26.23
2018-03-24T10:52:05.096Z,25.17
2018-03-24T10:54:30.814Z,25.87
2018-03-24T10:56:56.579Z,24.30
2018-03-24T10:59:22.301Z,27.63
2018-03-24T11:01:48.045Z,26.30
2018-03-24T11:04:13.813Z,25.50
2018-03-24T11:06:39.526Z,26.33
2018-03-24T11:09:05.250Z,28.10
2018-03-24T11:11:30.970Z,28.50
2018-03-24T11:13:56.723Z,27.60
2018-03-24T11:16:22.446Z,29.43
2018-03-24T11:18:48.181Z,27.50
2018-03-24T11:21:13.906Z,30.37
2018-03-24T11:23:39.639Z,28.17
2018-03-24T11:26:05.458Z,29.23
2018-03-24T11:28:31.222Z,31.23
2018-03-24T11:30:56.978Z,30.70
2018-03-24T11:33:22.716Z,29.17
2018-03-24T11:35:48.454Z,32.47
2018-03-24T11:38:14.201Z,30.60
2018-03-24T11:40:39.922Z,29.73
2018-03-24T11:43:05.666Z,28.70
2018-03-24T11:45:31.389Z,30.33
2018-03-24T11:47:57.134Z,29.23
2018-03-24T11:50:22.870Z,26.90
2018-03-24T11:52:48.599Z,31.13
2018-03-24T11:55:14.339Z,29.80
2018-03-24T11:57:40.062Z,29.33
2018-03-24T12:00:06.767Z,30.20
2018-03-24T12:02:32.494Z,29.10
2018-03-24T12:04:58.230Z,29.00
2018-03-24T12:07:23.955Z,29.33
2018-03-24T12:09:49.686Z,28.47
2018-03-24T12:12:15.402Z,29.33
2018-03-24T12:14:41.139Z,31.97
2018-03-24T12:17:06.919Z,31.40
2018-03-24T12:19:32.918Z,28.00
2018-03-24T12:21:58.653Z,27.30
2018-03-24T12:24:24.382Z,28.97
2018-03-24T12:26:50.101Z,27.73
2018-03-24T12:29:15.859Z,27.43
2018-03-24T12:31:41.606Z,27.93
2018-03-24T12:34:07.345Z,27.90
2018-03-24T12:36:33.210Z,28.70
2018-03-24T12:38:58.974Z,27.20
2018-03-24T12:41:25.813Z,27.30
2018-03-24T12:43:51.549Z,30.53
2018-03-24T12:46:17.286Z,27.40
2018-03-24T12:48:43.032Z,28.60
2018-03-24T12:51:08.765Z,28.60
2018-03-24T12:53:34.479Z,26.90
2018-03-24T12:56:00.218Z,26.27
2018-03-24T12:58:25.941Z,28.13
2018-03-24T13:00:51.675Z,28.67
2018-03-24T13:03:17.397Z,28.60
2018-03-24T13:05:43.145Z,29.13
2018-03-24T13:08:08.877Z,30.00
2018-03-24T13:10:34.618Z,28.20
2018-03-24T13:13:00.341Z,26.63
2018-03-24T13:15:26.085Z,27.23
2018-03-24T13:17:51.810Z,27.43
2018-03-24T13:20:17.565Z,29.20
2018-03-24T13:22:43.289Z,27.03
2018-03-24T13:25:09.085Z,27.87
2018-03-24T13:27:34.780Z,28.07
2018-03-24T13:30:00.513Z,29.03
2018-03-24T13:32:26.259Z,28.47
2018-03-24T13:34:51.990Z,29.37
2018-03-24T13:37:17.726Z,27.77
2018-03-24T13:39:43.445Z,28.73
2018-03-24T13:42:09.182Z,28.50
2018-03-24T13:44:34.911Z,32.00
2018-03-24T13:47:00.649Z,27.73
2018-03-24T13:49:26.386Z,30.10
2018-03-24T13:51:52.118Z,31.03
2018-03-24T13:54:17.901Z,33.10
2018-03-24T13:56:43.654Z,37.80
2018-03-24T13:59:09.393Z,29.43
2018-03-24T14:01:35.121Z,32.07
2018-03-24T14:04:01.070Z,30.37
2018-03-24T14:06:26.760Z,30.37
2018-03-24T14:08:52.478Z,32.77
2018-03-24T14:11:18.206Z,32.77
2018-03-24T14:13:43.942Z,34.30
2018-03-24T14:16:09.679Z,35.53
2018-03-24T14:18:35.410Z,35.57
2018-03-24T14:21:01.136Z,34.17
2018-03-24T14:23:26.867Z,32.77
2018-03-24T14:25:52.589Z,35.57
2018-03-24T14:28:18.332Z,35.37
2018-03-24T14:30:44.068Z,34.93
2018-03-24T14:33:09.799Z,32.73
2018-03-24T14:35:35.543Z,35.80
2018-03-24T14:38:01.300Z,33.70
2018-03-24T14:40:27.030Z,34.10
2018-03-24T14:42:52.765Z,32.63
2018-03-24T14:45:18.494Z,31.33
2018-03-24T14:47:44.236Z,34.07
2018-03-24T14:50:09.954Z,33.23
2018-03-24T14:52:35.718Z,35.33
2018-03-24T14:55:01.451Z,35.00
2018-03-24T14:57:27.174Z,34.67
2018-03-24T14:59:52.901Z,34.00
2018-03-24T15:02:18.618Z,36.20
2018-03-24T15:04:44.362Z,37.50
2018-03-24T15:07:10.097Z,36.27
2018-03-24T15:09:35.843Z,37.10
2018-03-24T15:12:01.570Z,33.93
2018-03-24T15:14:27.307Z,32.97
2018-03-24T15:16:53.041Z,33.73
2018-03-24T15:19:18.779Z,32.87
2018-03-24T15:21:45.408Z,34.87
2018-03-24T15:24:11.259Z,34.87
2018-03-24T15:26:37.077Z,32.73
2018-03-24T15:29:15.322Z,35.53
2018-03-24T15:31:53.707Z,33.90
2018-03-24T15:34:31.700Z,35.13
2018-03-24T15:36:57.430Z,39.87
2018-03-24T15:39:23.364Z,34.67
2018-03-24T15:41:49.087Z,33.90
2018-03-24T15:44:14.817Z,32.23
2018-03-24T15:46:40.543Z,35.60
2018-03-24T15:49:06.440Z,36.00
2018-03-24T15:51:32.296Z,34.70
2018-03-24T15:53:58.266Z,36.20
2018-03-24T15:56:23.998Z,35.83
2018-03-24T15:58:49.754Z,35.43
2018-03-24T16:01:15.477Z,36.20
2018-03-24T16:03:41.198Z,37.17
2018-03-24T16:06:06.930Z,37.13
2018-03-24T16:08:32.650Z,34.67
2018-03-24T16:10:58.378Z,34.87
2018-03-24T16:13:24.101Z,37.10
2018-03-24T16:15:49.842Z,36.40
2018-03-24T16:18:15.582Z,35.27
2018-03-24T16:20:41.322Z,35.03
2018-03-24T16:23:07.059Z,42.70
2018-03-24T16:25:32.803Z,42.47
2018-03-24T16:27:58.543Z,38.90
2018-03-24T16:30:24.275Z,36.00
2018-03-24T16:32:50.001Z,38.27
2018-03-24T16:35:15.735Z,35.40
2018-03-24T16:37:41.457Z,37.13
2018-03-24T16:40:07.187Z,35.07
2018-03-24T16:42:32.922Z,33.43
2018-03-24T16:44:58.646Z,34.43
2018-03-24T16:47:24.381Z,33.20
2018-03-24T16:49:50.122Z,35.90
2018-03-24T16:52:15.869Z,38.10
2018-03-24T16:54:41.596Z,37.30
2018-03-24T16:57:07.342Z,36.97
2018-03-24T16:59:33.083Z,37.40
2018-03-24T17:01:58.834Z,37.27
2018-03-24T17:04:24.574Z,36.20
2018-03-24T17:06:50.329Z,34.60
2018-03-24T17:09:16.065Z,40.37
2018-03-24T17:11:41.825Z,37.37
2018-03-24T17:14:07.536Z,36.63
2018-03-24T17:16:33.276Z,34.90
2018-03-24T17:18:59.010Z,38.73
2018-03-24T17:21:24.746Z,37.17
2018-03-24T17:23:50.483Z,35.77
2018-03-24T17:26:16.239Z,36.07
2018-03-24T17:28:41.967Z,33.20
2018-03-24T17:31:07.730Z,33.70
2018-03-24T17:33:33.477Z,32.43
2018-03-24T17:35:59.211Z,33.50
2018-03-24T17:38:24.968Z,34.03
2018-03-24T17:40:50.720Z,33.77
2018-03-24T17:43:16.478Z,35.33
2018-03-24T17:45:42.222Z,35.57
2018-03-24T17:48:07.979Z,34.43
2018-03-24T17:50:33.732Z,32.40
2018-03-24T17:52:59.484Z,32.60
2018-03-24T17:55:25.224Z,40.07
2018-03-24T17:57:50.967Z,36.00
2018-03-24T18:00:16.716Z,32.77
2018-03-24T18:02:42.454Z,33.40
2018-03-24T18:05:08.209Z,31.23
2018-03-24T18:07:34.172Z,34.30
2018-03-24T18:09:59.953Z,35.33
2018-03-24T18:12:25.678Z,31.80
2018-03-24T18:14:51.407Z,30.17
2018-03-24T18:17:17.155Z,29.60
2018-03-24T18:19:42.886Z,27.90
2018-03-24T18:22:08.641Z,30.00
2018-03-24T18:24:34.386Z,28.63
2018-03-24T18:27:00.132Z,29.90
2018-03-24T18:29:25.875Z,28.53
2018-03-24T18:31:51.634Z,30.00
2018-03-24T18:34:17.384Z,27.97
2018-03-24T18:36:43.142Z,31.20
2018-03-24T18:39:08.902Z,28.07
2018-03-24T18:41:34.630Z,28.37
2018-03-24T18:44:00.372Z,30.67
2018-03-24T18:46:26.127Z,33.60
2018-03-24T18:48:51.915Z,35.67
2018-03-24T18:51:17.657Z,30.03
2018-03-24T18:53:43.449Z,30.33
2018-03-24T18:56:09.214Z,29.37
2018-03-24T18:58:34.955Z,28.43
2018-03-24T19:01:00.690Z,30.63
2018-03-24T19:03:26.464Z,32.03
2018-03-24T19:05:52.247Z,32.73
2018-03-24T19:08:18.009Z,33.83
2018-03-24T19:10:43.775Z,33.43
2018-03-24T19:13:09.540Z,33.43
2018-03-24T19:15:35.279Z,32.83
2018-03-24T19:18:01.023Z,31.40
2018-03-24T19:20:26.774Z,30.37
2018-03-24T19:22:52.502Z,31.30
2018-03-24T19:25:18.247Z,30.73
2018-03-24T19:27:43.975Z,28.73
2018-03-24T19:30:09.745Z,28.47
2018-03-24T19:32:35.495Z,28.87
2018-03-24T19:35:01.248Z,27.00
2018-03-24T19:37:27.073Z,24.67
2018-03-24T19:39:52.770Z,29.30
2018-03-24T19:42:18.495Z,26.67
2018-03-24T19:44:44.256Z,25.90
2018-03-24T19:47:09.994Z,27.87
2018-03-24T19:49:35.771Z,27.83
2018-03-24T19:52:01.506Z,26.83
2018-03-24T19:54:27.246Z,26.70
2018-03-24T19:56:52.970Z,28.50
2018-03-24T19:59:18.702Z,25.47
2018-03-24T20:01:44.437Z,30.40
2018-03-24T20:04:10.174Z,30.40
2018-03-24T20:06:35.919Z,27.37
2018-03-24T20:09:01.652Z,28.53
2018-03-24T20:11:27.386Z,30.70
2018-03-24T20:13:53.162Z,27.77
2018-03-24T20:16:18.898Z,27.43
2018-03-24T20:18:44.633Z,29.10
2018-03-24T20:21:10.383Z,30.13
2018-03-24T20:23:36.122Z,30.70
2018-03-24T20:26:01.886Z,29.83
2018-03-24T20:28:27.638Z,29.23
2018-03-24T20:30:53.391Z,32.17
2018-03-24T20:33:19.123Z,28.80
2018-03-24T20:35:44.871Z,27.87
2018-03-24T20:38:10.607Z,29.10
2018-03-24T20:40:36.360Z,28.70
2018-03-24T20:43:02.086Z,29.83
2018-03-24T20:45:27.822Z,28.30
2018-03-24T20:47:53.565Z,28.40
2018-03-24T20:50:19.310Z,30.33
2018-03-24T20:52:45.038Z,29.27
2018-03-24T20:55:10.782Z,31.20
2018-03-24T20:57:36.515Z,29.37
2018-03-24T21:00:02.284Z,30.90
2018-03-24T21:02:28.040Z,29.77
2018-03-24T21:04:53.776Z,29.93
2018-03-24T21:07:19.533Z,30.53
2018-03-24T21:09:45.275Z,30.00
2018-03-24T21:12:11.088Z,40.43
2018-03-24T21:14:36.823Z,46.60
2018-03-24T21:17:02.579Z,36.03
2018-03-24T21:19:28.549Z,34.07
2018-03-24T21:21:54.322Z,32.43
2018-03-24T21:24:20.122Z,32.23
2018-03-24T21:26:45.825Z,33.83
2018-03-24T21:29:11.566Z,34.20
2018-03-24T21:31:37.313Z,34.10
2018-03-24T21:34:03.058Z,31.87
2018-03-24T21:36:28.790Z,32.23
2018-03-24T21:38:54.527Z,31.43
2018-03-24T21:41:20.278Z,32.43
2018-03-24T21:43:46.023Z,29.33
2018-03-24T21:46:11.774Z,31.23
2018-03-24T21:48:37.539Z,29.40
2018-03-24T21:51:03.312Z,30.87
2018-03-24T21:53:29.071Z,28.77
2018-03-24T21:55:54.808Z,29.80
2018-03-24T21:58:20.558Z,29.33
2018-03-24T22:00:46.305Z,30.67
2018-03-24T22:03:12.060Z,31.50
2018-03-24T22:05:37.795Z,34.03
2018-03-24T22:08:03.538Z,28.93
2018-03-24T22:10:29.270Z,30.87
2018-03-24T22:12:55.065Z,34.30
2018-03-24T22:15:21.028Z,33.33
2018-03-24T22:17:46.777Z,33.07
2018-03-24T22:20:12.501Z,31.33
2018-03-24T22:22:38.243Z,32.80
2018-03-24T22:25:03.978Z,32.63
2018-03-24T22:27:29.730Z,34.80
2018-03-24T22:29:55.467Z,32.80
2018-03-24T22:32:21.222Z,34.17
2018-03-24T22:34:46.965Z,33.60
2018-03-24T22:37:12.702Z,31.37
2018-03-24T22:39:38.486Z,31.57
2018-03-24T22:42:04.204Z,29.97
2018-03-24T22:44:29.938Z,30.50
2018-03-24T22:46:55.674Z,29.70
2018-03-24T22:49:21.411Z,27.57
2018-03-24T22:51:47.134Z,29.83
2018-03-24T22:54:12.862Z,25.93
2018-03-24T22:56:38.582Z,27.57
2018-03-24T22:59:04.323Z,25.33
2018-03-24T23:01:30.048Z,26.63
2018-03-24T23:03:55.781Z,24.97
2018-03-24T23:06:21.502Z,27.20
2018-03-24T23:08:47.251Z,24.90
2018-03-24T23:11:12.982Z,25.30
2018-03-24T23:13:38.726Z,24.80
2018-03-24T23:16:04.454Z,21.93
2018-03-24T23:18:30.189Z,22.03
2018-03-24T23:20:55.949Z,22.30
2018-03-24T23:23:21.692Z,23.60
2018-03-24T23:25:47.421Z,20.33
2018-03-24T23:28:13.145Z,20.57
2018-03-24T23:30:38.864Z,22.30
2018-03-24T23:33:04.597Z,20.80
2018-03-24T23:35:30.326Z,19.90
2018-03-24T23:37:56.050Z,21.63
2018-03-24T23:40:21.797Z,20.90
2018-03-24T23:42:47.534Z,20.30
2018-03-24T23:45:13.278Z,20.73
2018-03-24T23:47:39.030Z,19.33
2018-03-24T23:50:04.783Z,19.97
2018-03-24T23:52:30.554Z,19.87
2018-03-24T23:54:56.254Z,22.03
2018-03-24T23:57:21.991Z,19.67
2018-03-24T23:59:47.742Z,20.93
